Time;durP1;ratioP1;P1;durP2;ratioP2;P2;SDS_P1;SDS_P2;PMS_P1;PMS_P2;Temp;Humidity;BMP_temperature;BMP_pressure;BME280_temperature;BME280_humidity;BME280_pressure;Samples;Min_cycle;Max_cycle;Signal;HPM_P1;HPM_P2
2022/07/07 00:02:09;;;;;;;5.55;3.72;;;19.20;73.70;;;;;;5013046;28;20101;-30
2022/07/07 00:04:35;;;;;;;4.55;3.58;;;19.20;73.80;;;;;;5012979;28;20053;-32
2022/07/07 00:07:00;;;;;;;4.80;3.70;;;19.10;73.80;;;;;;5013203;28;20038;-32
2022/07/07 00:09:27;;;;;;;5.80;3.95;;;19.20;74.00;;;;;;5013286;28;20026;-30
2022/07/07 00:11:54;;;;;;;4.57;3.28;;;19.20;74.00;;;;;;5013356;28;20022;-29
2022/07/07 00:14:20;;;;;;;4.35;3.20;;;19.10;73.90;;;;;;5012642;28;20022;-29
2022/07/07 00:16:46;;;;;;;4.88;3.53;;;19.20;73.90;;;;;;5012542;28;20033;-29
2022/07/07 00:19:12;;;;;;;4.50;2.78;;;19.20;73.90;;;;;;5012774;28;20101;-28
2022/07/07 00:21:37;;;;;;;5.85;3.50;;;19.20;73.90;;;;;;5012917;28;20061;-29
2022/07/07 00:24:03;;;;;;;4.45;3.45;;;19.20;73.90;;;;;;5012868;28;20056;-30
2022/07/07 00:26:30;;;;;;;4.30;3.17;;;19.20;73.90;;;;;;5012635;28;20030;-32
2022/07/07 00:28:55;;;;;;;5.00;3.67;;;19.20;73.90;;;;;;5012722;28;20388;-29
2022/07/07 00:31:21;;;;;;;4.28;3.47;;;19.20;74.00;;;;;;5012361;28;20113;-28
2022/07/07 00:33:47;;;;;;;5.63;3.67;;;19.20;74.00;;;;;;5011189;28;20393;-28
2022/07/07 00:36:12;;;;;;;5.32;3.47;;;19.20;74.00;;;;;;5012676;28;20033;-28
2022/07/07 00:38:38;;;;;;;5.18;3.80;;;19.20;73.90;;;;;;5012410;28;20477;-29
2022/07/07 00:41:04;;;;;;;5.50;3.45;;;19.20;73.90;;;;;;5012170;28;20057;-29
2022/07/07 00:43:40;;;;;;;4.28;3.35;;;19.20;74.00;;;;;;5012168;28;20359;-32
2022/07/07 00:46:07;;;;;;;5.88;3.17;;;19.20;74.10;;;;;;4994546;28;20041;-35
2022/07/07 00:48:35;;;;;;;4.45;3.80;;;19.20;74.20;;;;;;5012380;28;20032;-30
2022/07/07 00:51:03;;;;;;;4.07;3.58;;;19.20;74.40;;;;;;5012094;28;20030;-29
2022/07/07 00:53:28;;;;;;;4.72;3.78;;;19.20;74.60;;;;;;5014413;28;20083;-29
2022/07/07 00:55:54;;;;;;;7.47;4.38;;;19.10;74.70;;;;;;5015794;28;20049;-29
2022/07/07 00:58:20;;;;;;;4.85;3.90;;;19.10;74.90;;;;;;5015675;28;20124;-28
2022/07/07 01:00:46;;;;;;;4.57;3.75;;;19.10;74.90;;;;;;5015671;28;20052;-33
2022/07/07 01:03:12;;;;;;;4.80;3.50;;;19.10;74.90;;;;;;5014207;28;20029;-30
2022/07/07 01:05:40;;;;;;;4.75;3.70;;;19.20;75.00;;;;;;5015655;28;20041;-29
2022/07/07 01:08:08;;;;;;;7.80;3.85;;;19.20;75.10;;;;;;5015580;28;21094;-30
2022/07/07 01:10:34;;;;;;;5.68;3.80;;;19.20;75.20;;;;;;5014568;28;20036;-30
2022/07/07 01:13:02;;;;;;;6.35;3.75;;;19.10;75.30;;;;;;5015464;28;20388;-30
2022/07/07 01:15:28;;;;;;;6.75;4.45;;;19.20;75.60;;;;;;5015437;28;20037;-30
2022/07/07 01:17:54;;;;;;;6.72;3.97;;;19.10;76.00;;;;;;5015277;28;20556;-30
2022/07/07 01:20:20;;;;;;;5.22;4.18;;;19.10;76.20;;;;;;5015405;28;20030;-31
2022/07/07 01:22:51;;;;;;;5.63;3.92;;;19.10;76.40;;;;;;5015625;28;20104;-32
2022/07/07 01:25:17;;;;;;;6.43;3.85;;;19.10;76.70;;;;;;5015340;28;20401;-28
2022/07/07 01:27:43;;;;;;;5.75;3.55;;;19.00;76.70;;;;;;5015268;28;20034;-35
2022/07/07 01:30:09;;;;;;;5.13;4.00;;;19.10;76.90;;;;;;5015273;28;20183;-29
2022/07/07 01:32:36;;;;;;;6.10;3.70;;;19.00;77.00;;;;;;5015320;28;20033;-29
2022/07/07 01:35:01;;;;;;;7.43;4.43;;;19.00;77.00;;;;;;5013965;28;20116;-31
2022/07/07 01:37:27;;;;;;;5.32;3.53;;;19.00;77.20;;;;;;5015314;28;20509;-29
2022/07/07 01:39:53;;;;;;;6.13;3.75;;;19.00;77.20;;;;;;5015011;28;20056;-29
2022/07/07 01:42:20;;;;;;;6.32;3.70;;;19.00;77.20;;;;;;5014904;28;20030;-29
2022/07/07 01:44:45;;;;;;;5.63;3.65;;;19.10;77.30;;;;;;5014887;28;20026;-28
2022/07/07 01:47:12;;;;;;;6.70;3.80;;;19.10;77.30;;;;;;5014871;28;20063;-29
2022/07/07 01:49:38;;;;;;;4.85;3.40;;;19.10;77.40;;;;;;5014894;28;20026;-31
2022/07/07 01:52:05;;;;;;;5.03;3.20;;;19.10;77.40;;;;;;5014743;28;20049;-30
2022/07/07 01:54:33;;;;;;;6.05;3.90;;;19.10;77.40;;;;;;5014716;28;20124;-30
2022/07/07 01:56:58;;;;;;;5.22;3.55;;;19.10;77.50;;;;;;5014636;28;20030;-28
2022/07/07 01:59:24;;;;;;;4.90;3.00;;;19.10;77.50;;;;;;5014582;28;20022;-29
2022/07/07 02:01:50;;;;;;;5.13;3.20;;;19.10;77.50;;;;;;5013326;28;20018;-28
2022/07/07 02:04:16;;;;;;;6.60;3.20;;;19.10;77.50;;;;;;5013919;28;20057;-29
2022/07/07 02:06:42;;;;;;;6.20;3.15;;;19.10;77.50;;;;;;5014427;28;20018;-29
2022/07/07 02:09:08;;;;;;;4.47;2.90;;;19.10;77.40;;;;;;5014522;28;20030;-33
2022/07/07 02:11:34;;;;;;;3.92;2.58;;;19.10;77.40;;;;;;5014637;28;20535;-29
2022/07/07 02:14:01;;;;;;;2.78;2.45;;;19.10;77.30;;;;;;5014535;28;20026;-31
2022/07/07 02:16:26;;;;;;;2.58;2.05;;;19.10;77.30;;;;;;5014818;28;20365;-29
2022/07/07 02:18:54;;;;;;;5.03;2.75;;;19.10;77.20;;;;;;5014450;28;20030;-29
2022/07/07 02:21:21;;;;;;;5.72;2.50;;;19.10;77.10;;;;;;5015327;28;20026;-31
2022/07/07 02:23:48;;;;;;;4.45;2.00;;;19.10;77.10;;;;;;5014626;28;20026;-29
2022/07/07 02:26:14;;;;;;;4.82;2.63;;;19.20;77.10;;;;;;5013195;28;20052;-30
2022/07/07 02:28:40;;;;;;;5.30;2.60;;;19.20;77.20;;;;;;5013866;28;20022;-29
2022/07/07 02:31:07;;;;;;;4.80;2.28;;;19.10;77.40;;;;;;5013865;28;20358;-29
2022/07/07 02:33:33;;;;;;;3.83;2.10;;;19.00;77.60;;;;;;5014341;28;20014;-29
2022/07/07 02:35:59;;;;;;;3.13;1.90;;;18.90;78.30;;;;;;5014359;28;20478;-29
2022/07/07 02:38:25;;;;;;;2.70;1.80;;;18.80;78.30;;;;;;5013838;28;20088;-29
2022/07/07 02:40:52;;;;;;;3.65;2.10;;;18.70;78.40;;;;;;5012430;28;20029;-29
2022/07/07 02:43:18;;;;;;;3.97;1.70;;;18.70;78.70;;;;;;5013691;28;20021;-29
2022/07/07 02:45:47;;;;;;;2.13;1.63;;;18.60;78.90;;;;;;5013856;28;20057;-31
2022/07/07 02:48:16;;;;;;;1.40;1.30;;;18.50;79.10;;;;;;5013611;28;20030;-29
2022/07/07 02:50:41;;;;;;;4.20;1.65;;;18.40;79.40;;;;;;5014034;28;20075;-32
2022/07/07 02:53:08;;;;;;;3.58;1.50;;;18.30;79.90;;;;;;5012270;28;20025;-33
2022/07/07 02:55:34;;;;;;;2.13;1.30;;;18.20;80.20;;;;;;5013526;28;20105;-30
2022/07/07 02:58:00;;;;;;;4.65;1.88;;;18.10;80.30;;;;;;5013531;28;20119;-30
2022/07/07 03:00:27;;;;;;;3.45;1.30;;;18.10;80.60;;;;;;5013326;28;20101;-28
2022/07/07 03:02:53;;;;;;;1.92;1.42;;;18.00;80.90;;;;;;5013569;28;20054;-30
2022/07/07 03:05:20;;;;;;;2.08;1.40;;;18.00;81.00;;;;;;5013363;28;20050;-28
2022/07/07 03:07:46;;;;;;;1.35;1.25;;;17.90;81.00;;;;;;5013244;28;20139;-30
2022/07/07 03:10:12;;;;;;;1.73;1.30;;;17.90;81.20;;;;;;5013756;28;20049;-35
2022/07/07 03:12:38;;;;;;;2.28;1.50;;;17.80;81.30;;;;;;5013258;28;20038;-29
2022/07/07 03:15:03;;;;;;;2.65;1.20;;;17.80;81.40;;;;;;5012443;28;20100;-30
2022/07/07 03:17:29;;;;;;;1.98;1.30;;;17.80;81.40;;;;;;5013318;28;20032;-30
2022/07/07 03:19:54;;;;;;;1.70;1.50;;;17.80;81.40;;;;;;5013109;28;20026;-28
2022/07/07 03:22:20;;;;;;;1.85;1.50;;;17.80;81.60;;;;;;5013292;28;20030;-29
2022/07/07 03:24:46;;;;;;;1.85;1.38;;;17.80;81.60;;;;;;5013066;28;20171;-28
2022/07/07 03:27:11;;;;;;;1.98;1.50;;;17.80;81.80;;;;;;5012951;28;20057;-35
2022/07/07 03:29:37;;;;;;;4.78;1.40;;;17.80;81.70;;;;;;5012979;28;20049;-30
2022/07/07 03:32:03;;;;;;;2.45;1.60;;;17.80;81.80;;;;;;5012913;28;20493;-29
2022/07/07 03:34:29;;;;;;;1.92;1.33;;;17.70;81.80;;;;;;5013168;28;20421;-35
2022/07/07 03:36:55;;;;;;;1.63;1.50;;;17.70;81.80;;;;;;5011542;28;20022;-29
2022/07/07 03:39:20;;;;;;;1.75;1.40;;;17.70;81.90;;;;;;5012895;28;20098;-29
2022/07/07 03:41:46;;;;;;;1.90;1.63;;;17.70;82.20;;;;;;5012767;28;20049;-30
2022/07/07 03:44:11;;;;;;;2.92;1.55;;;17.60;82.40;;;;;;5012817;28;20030;-28
2022/07/07 03:46:37;;;;;;;1.65;1.55;;;17.60;82.50;;;;;;5013370;28;20026;-29
2022/07/07 03:49:03;;;;;;;2.92;1.38;;;17.60;82.50;;;;;;5012988;28;20148;-29
2022/07/07 03:51:29;;;;;;;3.60;1.58;;;17.60;82.70;;;;;;5013043;28;20033;-29
2022/07/07 03:53:54;;;;;;;5.65;1.70;;;17.60;82.80;;;;;;5012802;28;20137;-33
2022/07/07 03:56:20;;;;;;;2.28;1.55;;;17.60;82.80;;;;;;5011350;28;20088;-33
2022/07/07 03:58:45;;;;;;;2.70;1.30;;;17.60;82.90;;;;;;5012580;28;20022;-29
2022/07/07 04:01:11;;;;;;;2.15;1.40;;;17.60;82.90;;;;;;5012781;28;20114;-29
2022/07/07 04:03:37;;;;;;;2.10;1.52;;;17.60;83.00;;;;;;5012608;28;20050;-32
2022/07/07 04:06:04;;;;;;;2.05;1.60;;;17.60;83.00;;;;;;5012833;28;20104;-28
2022/07/07 04:08:29;;;;;;;2.20;1.55;;;17.70;83.30;;;;;;5011067;28;20112;-30
2022/07/07 04:10:55;;;;;;;2.05;1.52;;;17.60;83.30;;;;;;5012522;28;20098;-30
2022/07/07 04:13:20;;;;;;;2.45;1.30;;;17.70;83.40;;;;;;5012847;28;20022;-29
2022/07/07 04:15:46;;;;;;;3.15;1.70;;;17.60;83.20;;;;;;5012769;28;20061;-31
2022/07/07 04:18:12;;;;;;;2.88;1.65;;;17.60;83.50;;;;;;5012626;28;20051;-30
2022/07/07 04:20:37;;;;;;;3.15;1.77;;;17.60;83.30;;;;;;5012572;28;20026;-34
2022/07/07 04:23:03;;;;;;;2.22;1.70;;;17.60;83.30;;;;;;5012966;28;20046;-32
2022/07/07 04:25:28;;;;;;;2.42;1.70;;;17.70;83.30;;;;;;5012682;28;20026;-29
2022/07/07 04:27:54;;;;;;;2.00;1.50;;;17.70;83.30;;;;;;5015469;28;20026;-29
2022/07/07 04:30:19;;;;;;;1.90;1.60;;;17.70;83.50;;;;;;5016298;28;20477;-31
2022/07/07 04:32:45;;;;;;;2.03;1.60;;;17.60;83.50;;;;;;5016511;28;20032;-28
2022/07/07 04:35:11;;;;;;;2.47;1.45;;;17.60;84.00;;;;;;5016193;28;20025;-31
2022/07/07 04:37:37;;;;;;;5.55;1.40;;;17.50;84.00;;;;;;5016091;28;20041;-31
2022/07/07 04:40:03;;;;;;;2.80;1.45;;;17.50;84.10;;;;;;5016047;28;20061;-30
2022/07/07 04:42:29;;;;;;;1.35;1.05;;;17.50;84.20;;;;;;5015211;28;20381;-31
2022/07/07 04:44:55;;;;;;;1.77;0.90;;;17.40;84.20;;;;;;5015986;28;20096;-28
2022/07/07 04:47:21;;;;;;;1.25;1.02;;;17.40;84.40;;;;;;5015963;28;20034;-30
2022/07/07 04:49:47;;;;;;;1.80;1.10;;;17.40;84.60;;;;;;5015842;28;20024;-29
2022/07/07 04:52:13;;;;;;;1.48;1.02;;;17.40;84.60;;;;;;5015745;28;20474;-32
2022/07/07 04:54:38;;;;;;;1.90;0.98;;;17.40;84.60;;;;;;5015795;28;20018;-29
2022/07/07 04:57:04;;;;;;;1.48;1.20;;;17.40;84.60;;;;;;5015638;28;20026;-29
2022/07/07 04:59:30;;;;;;;1.45;0.77;;;17.40;84.50;;;;;;5015801;28;20026;-34
2022/07/07 05:01:55;;;;;;;2.08;0.95;;;17.40;84.50;;;;;;5016025;28;20033;-29
2022/07/07 05:04:21;;;;;;;1.85;1.10;;;17.50;84.50;;;;;;5015439;28;20053;-30
2022/07/07 05:06:47;;;;;;;3.45;1.20;;;17.50;84.40;;;;;;5015481;28;20030;-30
2022/07/07 05:09:12;;;;;;;2.60;1.00;;;17.50;84.40;;;;;;5015338;28;20109;-30
2022/07/07 05:11:38;;;;;;;1.58;1.10;;;17.50;84.30;;;;;;5015572;28;20022;-28
2022/07/07 05:14:03;;;;;;;2.78;1.17;;;17.60;84.10;;;;;;5015649;28;20096;-29
2022/07/07 05:16:30;;;;;;;2.53;1.15;;;17.60;84.00;;;;;;5015609;28;20060;-29
2022/07/07 05:18:55;;;;;;;4.78;1.08;;;17.60;83.90;;;;;;5015561;28;20026;-32
2022/07/07 05:21:21;;;;;;;2.80;1.05;;;17.70;84.50;;;;;;5015224;28;20133;-30
2022/07/07 05:23:47;;;;;;;4.13;0.98;;;17.70;83.80;;;;;;5015325;28;20080;-29
2022/07/07 05:26:12;;;;;;;4.63;1.00;;;17.70;83.60;;;;;;5014068;28;20049;-30
2022/07/07 05:28:41;;;;;;;1.63;0.85;;;17.70;83.60;;;;;;5015397;28;20080;-29
2022/07/07 05:31:12;;;;;;;5.78;1.30;;;17.70;83.50;;;;;;5015854;28;20052;-31
2022/07/07 05:33:38;;;;;;;4.47;1.25;;;17.70;83.50;;;;;;5015541;28;20102;-29
2022/07/07 05:36:04;;;;;;;4.20;0.90;;;17.60;83.30;;;;;;5015002;28;20053;-33
2022/07/07 05:38:30;;;;;;;2.42;0.77;;;17.60;83.20;;;;;;5014646;28;20026;-29
2022/07/07 05:40:56;;;;;;;2.95;1.20;;;17.60;83.20;;;;;;5015168;28;20087;-32
2022/07/07 05:43:22;;;;;;;4.68;1.00;;;17.60;83.10;;;;;;5014980;28;20079;-31
2022/07/07 05:45:47;;;;;;;3.95;0.90;;;17.60;82.90;;;;;;5014965;28;20036;-30
2022/07/07 05:48:13;;;;;;;5.00;1.13;;;17.60;82.80;;;;;;5014994;28;20502;-29
2022/07/07 05:50:38;;;;;;;3.47;1.10;;;17.60;82.60;;;;;;5015100;28;20014;-30
2022/07/07 05:53:04;;;;;;;6.53;1.10;;;17.60;82.30;;;;;;5015393;28;20029;-31
2022/07/07 05:55:29;;;;;;;3.25;1.23;;;17.60;82.20;;;;;;5014843;28;20405;-34
2022/07/07 05:57:56;;;;;;;5.18;1.20;;;17.60;82.00;;;;;;5014848;28;20469;-35
2022/07/07 06:00:23;;;;;;;5.30;1.13;;;17.60;82.00;;;;;;5014531;28;20156;-30
2022/07/07 06:02:49;;;;;;;3.45;1.20;;;17.70;81.90;;;;;;5014732;28;20030;-30
2022/07/07 06:05:15;;;;;;;6.65;1.70;;;17.70;81.80;;;;;;5014333;28;20516;-30
2022/07/07 06:07:40;;;;;;;5.20;1.20;;;17.70;81.60;;;;;;5012948;28;20058;-28
2022/07/07 06:10:07;;;;;;;6.40;1.33;;;17.70;81.40;;;;;;5014242;28;20516;-28
2022/07/07 06:12:33;;;;;;;6.47;1.23;;;17.70;81.30;;;;;;5014344;28;20133;-29
2022/07/07 06:14:58;;;;;;;5.47;1.40;;;17.80;81.10;;;;;;5014444;28;20049;-27
2022/07/07 06:17:25;;;;;;;4.68;1.42;;;17.70;80.90;;;;;;5014191;28;20061;-30
2022/07/07 06:19:50;;;;;;;4.78;1.30;;;17.80;80.70;;;;;;5014105;28;20026;-28
2022/07/07 06:22:16;;;;;;;5.40;1.58;;;17.70;80.60;;;;;;5014273;28;20036;-28
2022/07/07 06:24:41;;;;;;;7.97;1.35;;;17.70;80.80;;;;;;5012713;28;20464;-29
2022/07/07 06:27:07;;;;;;;4.93;1.33;;;17.60;81.00;;;;;;5013960;28;20025;-28
2022/07/07 06:29:33;;;;;;;4.95;1.13;;;17.50;81.40;;;;;;5014314;28;20025;-28
2022/07/07 06:31:59;;;;;;;4.00;1.10;;;17.40;81.60;;;;;;5013953;28;20022;-30
2022/07/07 06:34:24;;;;;;;3.45;1.00;;;17.40;81.80;;;;;;5014100;28;20529;-29
2022/07/07 06:36:50;;;;;;;5.10;1.17;;;17.40;81.70;;;;;;5013962;28;20029;-28
2022/07/07 06:39:15;;;;;;;6.32;1.13;;;17.40;81.80;;;;;;5013802;28;20026;-29
2022/07/07 06:41:41;;;;;;;3.63;1.10;;;17.40;81.70;;;;;;5014105;28;20022;-28
2022/07/07 06:44:09;;;;;;;4.38;1.15;;;17.30;81.60;;;;;;5014021;28;20060;-27
2022/07/07 06:46:35;;;;;;;3.90;1.10;;;17.40;81.40;;;;;;5013863;28;20036;-29
2022/07/07 06:49:01;;;;;;;3.58;1.00;;;17.40;81.40;;;;;;5012788;28;20157;-28
2022/07/07 06:51:27;;;;;;;2.67;1.10;;;17.50;81.90;;;;;;5013831;28;20029;-29
2022/07/07 06:53:52;;;;;;;5.03;1.40;;;17.60;81.00;;;;;;5013531;28;20018;-29
2022/07/07 06:56:18;;;;;;;4.20;1.10;;;17.60;80.60;;;;;;5013939;28;20419;-30
2022/07/07 06:58:44;;;;;;;4.35;1.10;;;17.60;80.40;;;;;;5013552;28;20462;-31
2022/07/07 07:01:09;;;;;;;4.07;1.20;;;17.70;80.40;;;;;;5013963;28;20037;-31
2022/07/07 07:03:35;;;;;;;5.35;1.30;;;17.90;80.30;;;;;;5013253;28;20070;-28
2022/07/07 07:06:00;;;;;;;4.43;1.30;;;17.90;79.80;;;;;;5013540;28;20025;-27
2022/07/07 07:08:26;;;;;;;3.25;1.00;;;18.00;79.50;;;;;;5013310;28;20026;-28
2022/07/07 07:10:51;;;;;;;3.72;1.27;;;18.10;79.40;;;;;;5013585;28;20026;-31
2022/07/07 07:13:17;;;;;;;2.90;0.70;;;18.20;79.30;;;;;;5013256;28;20341;-30
2022/07/07 07:15:44;;;;;;;3.65;0.98;;;18.30;79.10;;;;;;5013258;28;20093;-31
2022/07/07 07:18:09;;;;;;;4.55;1.17;;;18.30;78.80;;;;;;5013151;28;20030;-29
2022/07/07 07:20:35;;;;;;;5.25;1.10;;;18.40;78.60;;;;;;5013261;28;20025;-32
2022/07/07 07:23:01;;;;;;;2.67;1.10;;;18.50;78.50;;;;;;5013503;28;20025;-28
2022/07/07 07:25:26;;;;;;;3.55;1.10;;;18.40;78.30;;;;;;5013366;28;20034;-29
2022/07/07 07:27:52;;;;;;;4.55;1.17;;;18.40;78.40;;;;;;5013232;28;20113;-28
2022/07/07 07:30:17;;;;;;;4.00;1.33;;;18.30;78.90;;;;;;5013209;28;20017;-29
2022/07/07 07:32:43;;;;;;;4.72;1.23;;;18.20;79.30;;;;;;5013012;28;20080;-29
2022/07/07 07:35:10;;;;;;;3.33;1.00;;;18.10;79.50;;;;;;5012892;28;20120;-30
2022/07/07 07:37:38;;;;;;;4.35;1.10;;;18.10;79.70;;;;;;5012929;28;20397;-32
2022/07/07 07:40:06;;;;;;;4.25;0.88;;;18.10;79.70;;;;;;5012915;28;20024;-30
2022/07/07 07:42:31;;;;;;;2.38;0.70;;;18.10;79.60;;;;;;5013049;28;20030;-31
2022/07/07 07:45:09;;;;;;;2.95;0.88;;;18.20;79.40;;;;;;5012836;28;20029;-29
2022/07/07 07:47:35;;;;;;;2.60;0.90;;;18.30;79.20;;;;;;5012728;28;20113;-29
2022/07/07 07:50:01;;;;;;;3.90;0.85;;;18.30;78.90;;;;;;5011349;28;20029;-29
2022/07/07 07:52:27;;;;;;;3.30;0.80;;;18.30;78.90;;;;;;5012846;28;20026;-28
2022/07/07 07:54:52;;;;;;;3.10;0.65;;;18.30;79.10;;;;;;5012903;28;20018;-29
2022/07/07 07:57:18;;;;;;;2.58;0.90;;;18.40;79.10;;;;;;5012611;28;20022;-30
2022/07/07 07:59:44;;;;;;;3.10;1.02;;;18.40;78.90;;;;;;5012827;28;20026;-28
2022/07/07 08:02:09;;;;;;;1.85;0.70;;;18.40;78.80;;;;;;5012143;28;20018;-30
2022/07/07 08:04:35;;;;;;;2.10;0.93;;;18.40;78.90;;;;;;5012890;28;20049;-28
2022/07/07 08:07:01;;;;;;;2.22;0.90;;;18.30;78.90;;;;;;5012756;28;20470;-31
2022/07/07 08:09:27;;;;;;;2.55;0.70;;;18.30;79.10;;;;;;5013043;28;20041;-29
2022/07/07 08:11:52;;;;;;;3.90;0.90;;;18.30;79.20;;;;;;5012751;28;20049;-30
2022/07/07 08:14:18;;;;;;;2.42;0.90;;;18.40;79.30;;;;;;5012786;28;20033;-29
2022/07/07 08:16:44;;;;;;;3.58;0.82;;;18.40;79.40;;;;;;5012701;28;20042;-30
2022/07/07 08:19:09;;;;;;;2.45;0.95;;;18.40;79.50;;;;;;5012677;28;20057;-30
2022/07/07 08:21:35;;;;;;;2.72;1.17;;;18.40;79.70;;;;;;5012582;28;20026;-29
2022/07/07 08:24:01;;;;;;;1.55;0.80;;;18.40;79.90;;;;;;5012711;28;20029;-29
2022/07/07 08:26:27;;;;;;;1.52;0.70;;;18.30;79.90;;;;;;5012910;28;20034;-29
2022/07/07 08:28:53;;;;;;;1.45;0.95;;;18.30;79.90;;;;;;5012422;28;20033;-35
2022/07/07 08:31:18;;;;;;;4.38;0.90;;;18.40;80.00;;;;;;5012378;28;20385;-32
2022/07/07 08:33:44;;;;;;;3.72;1.20;;;18.40;79.80;;;;;;5012571;28;20026;-29
2022/07/07 08:36:09;;;;;;;1.98;1.13;;;18.50;79.80;;;;;;5012377;28;20122;-29
2022/07/07 08:38:35;;;;;;;3.47;0.93;;;18.50;79.70;;;;;;5012367;28;20022;-29
2022/07/07 08:41:02;;;;;;;2.42;0.88;;;18.50;79.60;;;;;;5012272;28;20030;-30
2022/07/07 08:43:29;;;;;;;4.53;1.00;;;18.60;79.40;;;;;;5012569;28;20030;-30
2022/07/07 08:45:54;;;;;;;2.03;0.75;;;18.50;79.50;;;;;;5012241;28;20076;-30
2022/07/07 08:48:21;;;;;;;3.15;1.23;;;18.50;79.50;;;;;;5012248;28;20069;-28
2022/07/07 08:50:47;;;;;;;2.15;0.80;;;18.50;79.40;;;;;;5012243;28;20034;-30
2022/07/07 08:53:13;;;;;;;2.17;0.80;;;18.60;79.30;;;;;;5012171;28;20029;-29
2022/07/07 08:55:41;;;;;;;3.22;1.10;;;18.70;78.80;;;;;;5012182;28;20056;-28
2022/07/07 08:58:09;;;;;;;0.93;0.50;;;18.70;78.50;;;;;;5012096;28;20038;-30
2022/07/07 09:00:34;;;;;;;1.80;0.60;;;18.70;78.60;;;;;;5012187;28;20034;-29
2022/07/07 09:03:03;;;;;;;1.73;0.65;;;18.80;78.60;;;;;;5012027;28;20034;-29
2022/07/07 09:05:37;;;;;;;1.58;0.80;;;19.00;78.40;;;;;;5012123;28;20034;-29
2022/07/07 09:08:19;;;;;;;2.20;0.70;;;19.10;78.00;;;;;;5010619;28;20038;-31
2022/07/07 09:10:46;;;;;;;2.83;0.80;;;19.20;77.80;;;;;;5012112;28;20022;-31
2022/07/07 09:13:28;;;;;;;2.78;1.02;;;19.20;77.60;;;;;;5011130;28;20045;-29
2022/07/07 09:15:57;;;;;;;2.67;0.80;;;19.00;77.60;;;;;;5015624;28;20404;-30
2022/07/07 09:18:37;;;;;;;2.78;0.70;;;18.90;78.20;;;;;;5015716;28;20025;-31
2022/07/07 09:21:25;;;;;;;2.95;0.90;;;18.80;78.50;;;;;;5015814;28;20029;-29
2022/07/07 09:23:53;;;;;;;1.75;0.68;;;18.80;78.60;;;;;;5012075;28;20044;-30
2022/07/07 09:26:34;;;;;;;2.55;0.70;;;18.90;78.60;;;;;;5015576;28;20021;-31
2022/07/07 09:28:59;;;;;;;1.70;0.70;;;18.90;78.30;;;;;;5014273;28;20446;-31
2022/07/07 09:31:25;;;;;;;1.92;0.60;;;19.00;78.30;;;;;;5016055;28;20060;-30
2022/07/07 09:34:12;;;;;;;1.83;0.60;;;19.00;78.00;;;;;;5015627;28;20052;-29
2022/07/07 09:39:22;;;;;;;0.82;0.45;;;19.20;77.20;;;;;;5015307;28;20045;-29
2022/07/07 09:41:48;;;;;;;1.80;0.50;;;19.30;76.60;;;;;;5015254;28;20026;-30
2022/07/07 09:44:13;;;;;;;1.58;0.57;;;19.40;76.10;;;;;;5015080;28;20018;-30
2022/07/07 09:46:39;;;;;;;2.53;0.75;;;19.50;75.10;;;;;;5014998;28;20052;-30
2022/07/07 09:49:09;;;;;;;1.83;0.40;;;19.30;75.10;;;;;;5014990;28;20484;-31
2022/07/07 09:51:35;;;;;;;0.82;0.47;;;19.10;75.70;;;;;;5014802;28;20030;-33
2022/07/07 09:54:08;;;;;;;1.05;0.52;;;18.90;76.40;;;;;;5014829;28;20034;-30
2022/07/07 09:56:38;;;;;;;1.15;0.55;;;18.90;76.70;;;;;;5015020;28;20122;-30
2022/07/07 09:59:08;;;;;;;1.25;0.40;;;18.90;76.80;;;;;;5014686;28;20025;-31
2022/07/07 10:01:39;;;;;;;0.57;0.32;;;19.00;76.90;;;;;;5013849;28;20125;-29
2022/07/07 10:04:07;;;;;;;1.15;0.50;;;19.10;76.80;;;;;;5014473;28;20038;-30
2022/07/07 10:06:35;;;;;;;2.83;0.52;;;19.20;76.50;;;;;;5014823;28;20179;-29
2022/07/07 10:09:07;;;;;;;3.10;0.52;;;19.20;76.20;;;;;;5014760;28;20026;-29
2022/07/07 10:11:41;;;;;;;1.63;0.60;;;19.20;76.20;;;;;;5014804;28;20033;-30
2022/07/07 10:14:19;;;;;;;0.82;0.32;;;19.10;76.40;;;;;;5014366;28;20616;-29
2022/07/07 10:16:47;;;;;;;2.83;0.60;;;19.20;76.60;;;;;;5014475;28;20030;-29
2022/07/07 10:19:19;;;;;;;0.85;0.30;;;19.30;76.40;;;;;;5014278;28;20026;-32
2022/07/07 10:21:47;;;;;;;2.03;0.60;;;19.40;76.20;;;;;;5014322;28;20075;-32
2022/07/07 10:24:14;;;;;;;0.70;0.45;;;19.50;75.90;;;;;;5014155;28;20053;-34
2022/07/07 10:26:51;;;;;;;1.65;0.50;;;19.60;75.70;;;;;;5014316;28;20030;-29
2022/07/07 10:29:35;;;;;;;2.50;0.50;;;19.90;75.30;;;;;;5014335;28;20022;-33
2022/07/07 10:32:00;;;;;;;1.42;0.55;;;19.90;75.00;;;;;;4996632;28;20025;-30
2022/07/07 10:34:28;;;;;;;1.77;0.40;;;20.00;74.80;;;;;;5014074;28;20032;-35
2022/07/07 10:37:10;;;;;;;1.30;0.60;;;20.00;74.40;;;;;;5013295;28;20450;-29
2022/07/07 10:39:41;;;;;;;1.15;0.50;;;19.90;74.20;;;;;;5014291;28;20374;-31
2022/07/07 10:42:39;;;;;;;1.23;0.60;;;19.90;73.80;;;;;;5014254;28;20045;-36
2022/07/07 10:45:07;;;;;;;2.28;0.95;;;19.90;73.80;;;;;;5014070;28;20045;-30
2022/07/07 10:47:35;;;;;;;0.90;0.60;;;19.90;73.80;;;;;;5014119;28;20101;-29
2022/07/07 10:50:00;;;;;;;2.60;0.80;;;19.90;74.00;;;;;;5013687;28;20030;-32
2022/07/07 10:52:44;;;;;;;0.82;0.50;;;19.90;74.00;;;;;;5013681;28;20029;-29
2022/07/07 10:55:10;;;;;;;1.30;0.80;;;20.10;74.10;;;;;;5013705;28;20021;-30
2022/07/07 10:57:43;;;;;;;2.90;0.88;;;20.00;73.70;;;;;;5013926;28;20492;-29
2022/07/07 11:00:18;;;;;;;1.30;0.63;;;20.10;73.80;;;;;;5013456;28;20025;-29
2022/07/07 11:02:50;;;;;;;1.20;0.82;;;20.10;73.80;;;;;;5013605;28;20026;-30
2022/07/07 11:05:16;;;;;;;4.30;0.93;;;20.30;73.70;;;;;;5013581;28;20085;-30
2022/07/07 11:08:08;;;;;;;1.58;0.73;;;20.50;73.30;;;;;;5013648;28;20501;-31
2022/07/07 11:10:36;;;;;;;0.82;0.70;;;20.60;73.00;;;;;;5013737;28;20025;-29
2022/07/07 11:13:16;;;;;;;1.40;0.70;;;20.70;72.60;;;;;;5013415;28;20442;-29
2022/07/07 11:15:47;;;;;;;1.73;0.82;;;20.60;72.30;;;;;;5013279;28;20533;-30
2022/07/07 11:18:14;;;;;;;2.50;0.80;;;20.40;72.20;;;;;;5013532;28;20393;-29
2022/07/07 11:21:10;;;;;;;1.70;0.90;;;20.10;73.10;;;;;;5013109;28;20022;-33
2022/07/07 11:23:43;;;;;;;1.63;0.70;;;19.90;74.40;;;;;;5008701;28;20042;-29
2022/07/07 11:26:08;;;;;;;;;;;19.80;74.70;;;;;;5014253;28;20032;-29
2022/07/07 11:28:36;;;;;;;1.77;0.80;;;19.80;74.80;;;;;;5013183;28;20355;-29
2022/07/07 11:31:07;;;;;;;1.73;0.80;;;20.00;74.90;;;;;;5013067;28;20389;-30
2022/07/07 11:33:33;;;;;;;0.95;0.60;;;20.10;74.60;;;;;;5013171;28;20018;-29
2022/07/07 11:35:58;;;;;;;1.48;0.73;;;20.30;74.20;;;;;;5012593;28;20080;-33
2022/07/07 11:38:31;;;;;;;1.88;0.80;;;20.40;73.80;;;;;;5013406;28;20032;-29
2022/07/07 11:40:57;;;;;;;;;;;20.40;73.60;;;;;;5013628;28;20470;-31
2022/07/07 11:43:23;;;;;;;1.20;0.70;;;20.30;73.60;;;;;;5013025;28;19905;-29
2022/07/07 11:45:49;;;;;;;2.70;0.70;;;20.20;73.50;;;;;;5013360;28;20021;-31
2022/07/07 11:48:15;;;;;;;1.40;0.77;;;20.30;73.50;;;;;;5013230;28;20092;-30
2022/07/07 11:50:41;;;;;;;1.92;0.80;;;20.40;73.00;;;;;;5012889;28;20033;-31
2022/07/07 11:53:06;;;;;;;1.33;0.68;;;20.50;72.70;;;;;;5012955;28;20417;-29
2022/07/07 11:55:32;;;;;;;2.85;1.02;;;20.50;72.30;;;;;;5013112;28;20029;-30
2022/07/07 11:58:00;;;;;;;3.67;0.90;;;20.40;71.90;;;;;;5012762;28;20025;-34
2022/07/07 12:00:41;;;;;;;3.83;0.90;;;20.40;72.20;;;;;;5012720;28;20018;-30
2022/07/07 12:03:07;;;;;;;1.50;0.70;;;20.20;72.50;;;;;;5012548;28;20034;-30
2022/07/07 12:05:44;;;;;;;2.70;1.00;;;20.10;72.70;;;;;;5012923;28;20481;-29
2022/07/07 12:08:14;;;;;;;2.38;1.00;;;20.20;72.50;;;;;;5012382;28;20062;-32
2022/07/07 12:10:57;;;;;;;4.40;1.42;;;20.30;72.10;;;;;;5012873;28;20024;-32
2022/07/07 12:13:26;;;;;;;2.30;1.10;;;20.40;71.70;;;;;;5012909;28;20030;-31
2022/07/07 12:15:53;;;;;;;1.92;0.93;;;20.40;71.30;;;;;;5012642;28;20385;-32
2022/07/07 12:18:36;;;;;;;3.30;0.90;;;20.40;71.30;;;;;;5012469;28;20033;-30
2022/07/07 12:21:04;;;;;;;2.03;0.82;;;20.50;71.30;;;;;;5012908;28;20030;-30
2022/07/07 12:23:34;;;;;;;2.53;1.00;;;20.60;71.00;;;;;;5012763;28;20117;-32
2022/07/07 12:26:09;;;;;;;3.47;1.13;;;20.50;71.20;;;;;;5012545;28;20030;-30
2022/07/07 12:28:35;;;;;;;2.45;0.98;;;20.30;71.80;;;;;;5012647;28;20026;-30
2022/07/07 12:31:01;;;;;;;3.58;1.33;;;20.10;72.20;;;;;;5012707;28;20416;-29
2022/07/07 12:33:40;;;;;;;6.70;1.65;;;20.00;72.70;;;;;;5012734;28;20034;-31
2022/07/07 12:36:17;;;;;;;5.43;1.73;;;19.90;72.50;;;;;;5012709;28;20030;-35
2022/07/07 12:38:47;;;;;;;6.15;1.75;;;19.80;72.50;;;;;;5012781;28;20022;-31
2022/07/07 12:41:32;;;;;;;7.70;1.60;;;19.80;72.60;;;;;;5012858;28;20076;-31
2022/07/07 12:44:18;;;;;;;5.43;1.52;;;20.00;72.30;;;;;;5012585;28;20391;-30
2022/07/07 12:46:45;;;;;;;9.55;1.92;;;20.10;71.80;;;;;;5012241;28;20014;-29
2022/07/07 12:49:12;;;;;;;6.57;1.60;;;20.40;71.50;;;;;;5016044;28;20461;-30
2022/07/07 12:51:41;;;;;;;6.38;1.70;;;20.50;70.90;;;;;;5016294;28;20377;-29
2022/07/07 12:54:08;;;;;;;4.90;1.65;;;20.60;70.00;;;;;;5016771;28;20353;-29